Time;durP1;ratioP1;P1;durP2;ratioP2;P2;SDS_P1;SDS_P2;PMS_P1;PMS_P2;Temp;Humidity;BMP_temperature;BMP_pressure;BME280_temperature;BME280_humidity;BME280_pressure;Samples;Min_cycle;Max_cycle;Signal;HPM_P1;HPM_P2
2023/12/14 00:02:03;;;;;;;28.60;16.90;;;;;;;7.85;100.00;99483.01;107081;1244;72250;-79
2023/12/14 00:04:32;;;;;;;27.10;16.50;;;;;;;7.73;100.00;99480.29;107239;1256;59344;-80
2023/12/14 00:07:01;;;;;;;29.10;17.90;;;;;;;7.68;100.00;99477.41;107180;1246;62762;-78
2023/12/14 00:09:30;;;;;;;28.30;16.60;;;;;;;7.70;100.00;99468.91;107133;1247;59140;-79
2023/12/14 00:11:59;;;;;;;27.70;17.50;;;;;;;7.63;100.00;99459.60;107242;1256;58942;-78
2023/12/14 00:14:28;;;;;;;30.30;18.00;;;;;;;7.64;100.00;99465.09;107194;1256;62982;-77
2023/12/14 00:16:59;;;;;;;30.80;18.30;;;;;;;7.70;100.00;99468.74;107239;1247;61183;-79
2023/12/14 00:19:28;;;;;;;28.50;17.40;;;;;;;7.56;100.00;99477.96;107189;1244;69082;-77
2023/12/14 00:21:57;;;;;;;28.20;17.40;;;;;;;7.52;100.00;99484.06;107245;1252;63973;-78
2023/12/14 00:24:26;;;;;;;29.20;17.00;;;;;;;7.64;100.00;99485.36;107255;1248;59060;-77
2023/12/14 00:26:55;;;;;;;30.80;18.30;;;;;;;7.68;100.00;99486.58;107235;1244;59030;-79
2023/12/14 00:29:26;;;;;;;28.60;17.80;;;;;;;7.69;100.00;99479.72;107222;1251;73263;-77
2023/12/14 00:31:56;;;;;;;31.00;18.20;;;;;;;7.58;100.00;99470.04;107236;1244;63474;-78
2023/12/14 00:34:25;;;;;;;29.40;17.80;;;;;;;7.55;100.00;99465.98;107165;1247;70513;-76
2023/12/14 00:36:54;;;;;;;32.70;19.80;;;;;;;7.56;100.00;99464.30;107155;1247;73410;-79
2023/12/14 00:39:23;;;;;;;27.20;17.10;;;;;;;7.49;100.00;99462.76;107178;1248;58985;-79
2023/12/14 00:41:52;;;;;;;26.70;16.50;;;;;;;7.45;100.00;99460.52;107236;1246;58547;-79
2023/12/14 00:44:21;;;;;;;29.20;17.30;;;;;;;7.59;100.00;99454.19;107217;1244;62540;-82
2023/12/14 00:46:50;;;;;;;32.00;17.30;;;;;;;7.44;100.00;99451.73;107200;1248;72436;-79
2023/12/14 00:49:19;;;;;;;29.10;17.60;;;;;;;7.61;100.00;99447.08;107123;1257;70126;-83
2023/12/14 00:51:48;;;;;;;32.00;18.40;;;;;;;7.69;100.00;99449.92;107142;1247;72845;-82
2023/12/14 00:54:16;;;;;;;28.70;18.00;;;;;;;7.77;100.00;99448.80;107188;1248;62458;-81
2023/12/14 00:56:45;;;;;;;34.30;18.80;;;;;;;7.91;100.00;99444.69;107247;1248;58806;-81
2023/12/14 00:59:14;;;;;;;30.20;18.30;;;;;;;8.02;100.00;99447.40;107311;1245;71837;-82
2023/12/14 01:01:43;;;;;;;31.20;18.10;;;;;;;8.16;100.00;99439.85;107166;1244;71137;-81
2023/12/14 01:04:12;;;;;;;29.10;17.80;;;;;;;8.11;100.00;99429.86;107076;1248;60394;-82
2023/12/14 01:06:41;;;;;;;31.20;17.70;;;;;;;8.02;100.00;99428.33;106999;1254;73520;-83
2023/12/14 01:09:09;;;;;;;26.90;17.70;;;;;;;8.01;100.00;99418.42;106874;1257;63195;-82
2023/12/14 01:11:38;;;;;;;28.50;17.60;;;;;;;7.87;100.00;99414.20;107014;1247;59249;-83
2023/12/14 01:14:07;;;;;;;28.40;17.80;;;;;;;7.87;100.00;99418.16;106958;1247;74627;-84
2023/12/14 01:16:36;;;;;;;30.80;18.30;;;;;;;7.91;100.00;99419.53;106904;1244;61791;-84
2023/12/14 01:19:07;;;;;;;30.10;18.80;;;;;;;8.05;100.00;99419.98;107023;1248;69369;-82
2023/12/14 01:21:36;;;;;;;29.40;17.80;;;;;;;8.07;100.00;99410.12;106989;1257;74243;-80
2023/12/14 01:24:06;;;;;;;28.70;17.70;;;;;;;8.07;100.00;99400.36;107028;1248;57460;-83
2023/12/14 01:26:34;;;;;;;30.40;17.80;;;;;;;8.11;100.00;99395.37;107324;1247;61090;-82
2023/12/14 01:29:03;;;;;;;27.60;16.90;;;;;;;8.23;100.00;99395.94;107029;1257;62654;-83
2023/12/14 01:31:32;;;;;;;29.90;17.70;;;;;;;8.20;100.00;99394.48;107230;1245;60801;-81
2023/12/14 01:34:01;;;;;;;32.20;17.40;;;;;;;8.16;100.00;99393.56;107168;1244;69983;-81
2023/12/14 01:36:29;;;;;;;26.60;17.20;;;;;;;8.20;100.00;99388.58;107147;1248;74121;-78
2023/12/14 01:38:59;;;;;;;27.70;16.30;;;;;;;8.10;100.00;99385.21;107037;1250;62589;-81
2023/12/14 01:41:27;;;;;;;27.40;17.30;;;;;;;8.06;100.00;99382.27;107151;1248;61271;-76
2023/12/14 01:43:57;;;;;;;27.00;16.70;;;;;;;8.12;100.00;99376.39;107022;1247;73435;-78
2023/12/14 01:46:26;;;;;;;28.50;17.60;;;;;;;8.01;100.00;99371.98;107134;1251;72804;-75
2023/12/14 01:48:55;;;;;;;26.20;15.70;;;;;;;7.98;100.00;99368.40;107402;1245;62249;-77
2023/12/14 01:51:24;;;;;;;27.00;16.90;;;;;;;8.03;100.00;99368.14;108591;1246;64512;-80
2023/12/14 01:53:53;;;;;;;30.20;17.30;;;;;;;8.05;100.00;99377.70;108761;1245;57746;-80
2023/12/14 01:56:22;;;;;;;25.80;16.00;;;;;;;8.12;100.00;99374.15;108743;1247;57782;-78
2023/12/14 01:58:52;;;;;;;29.60;16.20;;;;;;;8.13;100.00;99377.66;108669;1244;73185;-80
2023/12/14 02:01:38;;;;;;;28.00;15.70;;;;;;;7.92;100.00;99370.77;108287;1244;72652;-81
2023/12/14 02:04:07;;;;;;;25.50;15.50;;;;;;;7.92;100.00;99370.03;107115;1248;70075;-81
2023/12/14 02:06:37;;;;;;;25.10;14.80;;;;;;;8.04;100.00;99365.98;107796;1248;62849;-81
2023/12/14 02:09:06;;;;;;;26.30;15.80;;;;;;;8.02;100.00;99352.39;107160;1256;58673;-83
2023/12/14 02:11:36;;;;;;;28.60;16.60;;;;;;;8.00;100.00;99347.04;107130;1246;59031;-81
2023/12/14 02:14:06;;;;;;;28.40;17.30;;;;;;;8.06;100.00;99343.56;107100;1248;62929;-83
2023/12/14 02:16:38;;;;;;;28.10;16.50;;;;;;;7.98;100.00;99345.29;106934;1257;61626;-82
2023/12/14 02:19:07;;;;;;;28.80;16.70;;;;;;;7.80;100.00;99342.08;107029;1246;59263;-82
2023/12/14 02:21:36;;;;;;;25.80;16.30;;;;;;;7.61;100.00;99336.60;106950;1250;63160;-81
2023/12/14 02:24:05;;;;;;;27.20;16.70;;;;;;;7.75;100.00;99334.72;107030;1244;62663;-81
2023/12/14 02:26:33;;;;;;;28.80;17.00;;;;;;;7.82;100.00;99333.61;106982;1254;60594;-81
2023/12/14 02:29:03;;;;;;;27.20;15.80;;;;;;;7.78;100.00;99325.32;107033;1247;73924;-80
2023/12/14 02:31:32;;;;;;;31.10;16.80;;;;;;;7.61;100.00;99321.14;107215;1257;72692;-78
2023/12/14 02:34:01;;;;;;;27.60;16.20;;;;;;;7.62;100.00;99313.61;107255;1245;71213;-80
2023/12/14 02:36:29;;;;;;;26.90;16.30;;;;;;;7.54;100.00;99307.88;107166;1245;74024;-81
2023/12/14 02:38:58;;;;;;;27.10;16.50;;;;;;;7.46;100.00;99292.77;107366;1247;59071;-81
2023/12/14 02:41:27;;;;;;;31.30;16.40;;;;;;;7.52;100.00;99297.14;107135;1251;59067;-80
2023/12/14 02:43:56;;;;;;;30.30;16.50;;;;;;;7.63;100.00;99302.09;107246;1244;72987;-82
2023/12/14 02:46:25;;;;;;;24.00;15.50;;;;;;;7.79;100.00;99293.36;107097;1248;72181;-82
2023/12/14 02:48:53;;;;;;;28.00;16.90;;;;;;;7.77;100.00;99299.38;107306;1248;68887;-81
2023/12/14 02:51:22;;;;;;;26.80;16.10;;;;;;;7.80;100.00;99305.25;107296;1247;63673;-84
2023/12/14 02:53:51;;;;;;;27.90;16.40;;;;;;;7.86;100.00;99313.22;107288;1245;57685;-83
2023/12/14 02:56:20;;;;;;;27.00;15.40;;;;;;;7.90;100.00;99316.17;107165;1245;61535;-80
2023/12/14 02:58:51;;;;;;;28.60;16.30;;;;;;;7.91;100.00;99312.40;107201;1257;65176;-81
2023/12/14 03:01:24;;;;;;;31.30;16.70;;;;;;;7.83;100.00;99311.41;107165;1248;72483;-83
2023/12/14 03:03:52;;;;;;;29.60;15.80;;;;;;;7.85;100.00;99306.83;107183;1248;70512;-81
2023/12/14 03:06:21;;;;;;;25.60;16.90;;;;;;;7.87;100.00;99304.39;107196;1248;62581;-81
2023/12/14 03:08:50;;;;;;;26.40;15.30;;;;;;;7.88;100.00;99305.73;107191;1245;58936;-82
2023/12/14 03:11:26;;;;;;;27.20;15.70;;;;;;;7.82;100.00;99301.08;107045;1246;60974;-83
2023/12/14 03:13:54;;;;;;;26.50;15.90;;;;;;;7.86;100.00;99304.02;107253;1247;71982;-82
2023/12/14 03:16:24;;;;;;;26.60;16.20;;;;;;;7.84;100.00;99305.70;107938;1245;60950;-80
2023/12/14 03:18:53;;;;;;;25.40;15.80;;;;;;;7.91;100.00;99307.77;108065;1247;59511;-79
2023/12/14 03:21:24;;;;;;;27.20;16.20;;;;;;;8.08;100.00;99309.83;107838;1248;73035;-78
2023/12/14 03:23:52;;;;;;;26.40;15.70;;;;;;;8.15;100.00;99311.47;107175;1248;62616;-79
2023/12/14 03:26:21;;;;;;;26.60;16.20;;;;;;;8.25;100.00;99319.98;107166;1244;61528;-78
2023/12/14 03:28:50;;;;;;;26.40;16.00;;;;;;;8.25;100.00;99320.69;107969;1244;63352;-79
2023/12/14 03:31:19;;;;;;;24.30;15.50;;;;;;;8.27;100.00;99328.77;108092;1245;71502;-79
2023/12/14 03:33:49;;;;;;;24.90;15.10;;;;;;;8.13;100.00;99327.02;107423;1245;70184;-80
2023/12/14 03:36:18;;;;;;;26.00;15.90;;;;;;;8.04;100.00;99331.78;107033;1254;62930;-80
2023/12/14 03:38:47;;;;;;;25.20;15.90;;;;;;;8.09;100.00;99327.89;107109;1248;57286;-78
2023/12/14 03:41:16;;;;;;;26.10;15.70;;;;;;;8.07;100.00;99328.92;107158;1247;61113;-77
2023/12/14 03:43:44;;;;;;;29.80;16.20;;;;;;;8.05;100.00;99331.70;106896;1257;74021;-76
2023/12/14 03:46:13;;;;;;;24.60;16.40;;;;;;;8.08;100.00;99338.19;106993;1247;71631;-77
2023/12/14 03:48:43;;;;;;;28.80;16.10;;;;;;;7.99;100.00;99330.95;107009;1249;69315;-76
2023/12/14 03:51:18;;;;;;;27.10;15.70;;;;;;;7.88;100.00;99340.41;106945;1254;72641;-77
2023/12/14 03:53:47;;;;;;;;;;;;;;;7.62;100.00;99336.31;106947;1247;62411;-80
2023/12/14 03:56:16;;;;;;;27.80;16.30;;;;;;;7.58;100.00;99329.03;106970;1246;60681;-81
2023/12/14 03:58:45;;;;;;;28.40;16.20;;;;;;;7.60;100.00;99330.71;107021;1247;73229;-80
2023/12/14 04:01:21;;;;;;;27.10;16.30;;;;;;;7.53;100.00;99334.09;106977;1244;72927;-77
2023/12/14 04:03:49;;;;;;;27.20;15.90;;;;;;;7.49;100.00;99335.45;106692;1244;536071;-78
2023/12/14 04:06:18;;;;;;;31.30;16.00;;;;;;;7.41;100.00;99336.64;107165;1247;73888;-80
2023/12/14 04:08:47;;;;;;;25.80;16.50;;;;;;;7.38;100.00;99328.01;107293;1246;59029;-80
2023/12/14 04:11:16;;;;;;;26.30;16.20;;;;;;;7.43;100.00;99323.64;107310;1248;58880;-80
2023/12/14 04:13:45;;;;;;;28.00;16.70;;;;;;;7.51;100.00;99318.85;107678;1246;62058;-80
2023/12/14 04:16:14;;;;;;;25.90;16.10;;;;;;;7.62;100.00;99325.05;107886;1246;61117;-80
2023/12/14 04:18:43;;;;;;;29.80;18.80;;;;;;;7.60;100.00;99322.64;107665;1247;66884;-80
2023/12/14 04:21:12;;;;;;;33.60;20.40;;;;;;;7.58;100.00;99327.28;107118;1247;73852;-80
2023/12/14 04:23:41;;;;;;;32.60;19.30;;;;;;;7.54;100.00;99327.58;107081;1247;63623;-80
2023/12/14 04:26:10;;;;;;;33.50;18.90;;;;;;;7.50;100.00;99326.54;106979;1246;61785;-80
2023/12/14 04:28:39;;;;;;;30.30;17.80;;;;;;;7.38;100.00;99329.58;107054;1244;73146;-79
2023/12/14 04:31:07;;;;;;;28.30;16.80;;;;;;;7.28;100.00;99340.11;106985;1244;72873;-80
2023/12/14 04:33:36;;;;;;;27.40;17.20;;;;;;;7.33;100.00;99360.35;107082;1248;70317;-79
2023/12/14 04:36:06;;;;;;;25.60;16.70;;;;;;;7.36;100.00;99382.27;107027;1247;73916;-81
2023/12/14 04:38:35;;;;;;;26.80;16.40;;;;;;;7.48;100.00;99391.34;107256;1247;58930;-81
2023/12/14 04:41:04;;;;;;;28.00;16.60;;;;;;;7.51;100.00;99391.48;107155;1247;59171;-82
2023/12/14 04:43:33;;;;;;;26.30;16.30;;;;;;;7.55;100.00;99380.55;107205;1247;61947;-82
2023/12/14 04:46:02;;;;;;;26.50;16.70;;;;;;;7.57;100.00;99366.70;107269;1254;61510;-81
2023/12/14 04:48:32;;;;;;;34.70;19.70;;;;;;;7.51;100.00;99360.13;107288;1248;59301;-80
2023/12/14 04:51:01;;;;;;;32.60;19.90;;;;;;;7.46;100.00;99367.23;107149;1249;64130;-80
2023/12/14 04:53:30;;;;;;;30.50;17.80;;;;;;;7.47;100.00;99375.27;107120;1247;62540;-80
2023/12/14 04:55:59;;;;;;;42.50;26.40;;;;;;;7.52;100.00;99379.10;107073;1248;62093;-80
2023/12/14 04:58:28;;;;;;;26.70;17.50;;;;;;;7.44;100.00;99374.66;107019;1249;73284;-82
2023/12/14 05:01:00;;;;;;;27.30;16.40;;;;;;;7.58;100.00;99380.25;106928;1248;61158;-81
2023/12/14 05:03:29;;;;;;;27.50;16.50;;;;;;;7.55;100.00;99383.99;106957;1247;70235;-79
2023/12/14 05:05:57;;;;;;;27.10;16.30;;;;;;;7.55;100.00;99381.73;107038;1245;72268;-80
2023/12/14 05:08:26;;;;;;;28.00;15.30;;;;;;;7.48;100.00;99384.54;106959;1256;59015;-82
2023/12/14 05:10:55;;;;;;;27.90;15.30;;;;;;;7.28;100.00;99396.43;107191;1248;61017;-83
2023/12/14 05:13:25;;;;;;;30.40;15.20;;;;;;;6.91;100.00;99396.68;107032;1256;73372;-82
2023/12/14 05:15:54;;;;;;;33.70;18.00;;;;;;;6.41;100.00;99392.48;107529;1244;70585;-82
2023/12/14 05:18:23;;;;;;;31.80;15.40;;;;;;;6.23;100.00;99394.97;107475;1246;70452;-79
2023/12/14 05:20:52;;;;;;;41.00;19.30;;;;;;;5.88;100.00;99406.56;107048;1248;71467;-78
2023/12/14 05:23:21;;;;;;;40.70;22.40;;;;;;;5.80;100.00;99414.73;107072;1247;58762;-79
2023/12/14 05:25:50;;;;;;;44.10;25.00;;;;;;;5.72;100.00;99412.59;106972;1245;59799;-78
2023/12/14 05:28:19;;;;;;;43.90;23.20;;;;;;;5.74;100.00;99406.54;106878;1244;72456;-78
2023/12/14 05:30:48;;;;;;;47.30;24.60;;;;;;;5.74;100.00;99409.86;106909;1248;71019;-77
2023/12/14 05:33:18;;;;;;;47.10;24.80;;;;;;;5.82;100.00;99420.45;107095;1249;70805;-79
2023/12/14 05:35:46;;;;;;;43.40;23.20;;;;;;;5.86;100.00;99429.54;107044;1255;73589;-80
2023/12/14 05:38:15;;;;;;;50.00;25.60;;;;;;;5.86;100.00;99426.79;107189;1247;57875;-78
2023/12/14 05:40:44;;;;;;;41.50;22.80;;;;;;;5.77;100.00;99427.59;107181;1245;59054;-78
2023/12/14 05:43:13;;;;;;;41.70;23.60;;;;;;;5.58;100.00;99433.42;107197;1244;72718;-78
2023/12/14 05:45:41;;;;;;;40.80;22.90;;;;;;;5.59;100.00;99428.86;107202;1249;71604;-79
2023/12/14 05:48:10;;;;;;;43.10;23.60;;;;;;;5.51;100.00;99430.15;107252;1247;60827;-78
2023/12/14 05:50:39;;;;;;;43.10;23.60;;;;;;;5.48;100.00;99453.50;107238;1257;63047;-79
2023/12/14 05:53:08;;;;;;;48.90;28.10;;;;;;;5.49;100.00;99458.77;107331;1245;58733;-79
2023/12/14 05:55:38;;;;;;;80.50;47.30;;;;;;;5.48;100.00;99459.04;107281;1253;60230;-78
2023/12/14 05:58:07;;;;;;;76.30;45.50;;;;;;;5.49;100.00;99448.27;107284;1244;74728;-80
2023/12/14 06:00:36;;;;;;;69.10;41.20;;;;;;;5.48;100.00;99456.27;107059;1247;61912;-81
2023/12/14 06:03:05;;;;;;;75.20;44.50;;;;;;;5.48;100.00;99465.39;107304;1247;70364;-79
2023/12/14 06:05:34;;;;;;;61.70;36.00;;;;;;;5.54;100.00;99480.00;107206;1248;63798;-79
2023/12/14 06:08:04;;;;;;;69.10;39.40;;;;;;;5.57;100.00;99483.79;107170;1247;58725;-78
2023/12/14 06:10:33;;;;;;;70.80;39.30;;;;;;;5.60;100.00;99483.70;107183;1248;59016;-79
2023/12/14 06:13:02;;;;;;;70.20;43.40;;;;;;;5.68;100.00;99488.19;107219;1256;62931;-79
2023/12/14 06:15:31;;;;;;;70.70;43.90;;;;;;;5.68;100.00;99490.25;107189;1257;71738;-79
2023/12/14 06:17:59;;;;;;;70.10;41.10;;;;;;;5.72;100.00;99489.46;107285;1246;70419;-79
2023/12/14 06:20:28;;;;;;;55.90;33.90;;;;;;;5.81;100.00;99488.80;107205;1257;74428;-79
2023/12/14 06:22:57;;;;;;;64.70;34.40;;;;;;;5.85;100.00;99481.98;107229;1246;59104;-78
2023/12/14 06:25:26;;;;;;;64.00;37.40;;;;;;;5.80;100.00;99486.30;107186;1257;60394;-78
2023/12/14 06:27:55;;;;;;;53.90;29.10;;;;;;;5.88;100.00;99491.23;107252;1255;63301;-78
2023/12/14 06:30:24;;;;;;;50.50;29.60;;;;;;;5.89;100.00;99485.13;107227;1247;60881;-78
2023/12/14 06:32:53;;;;;;;49.20;29.10;;;;;;;5.77;100.00;99475.77;107365;1244;68701;-78
2023/12/14 06:35:22;;;;;;;51.30;29.70;;;;;;;5.75;100.00;99481.95;107325;1247;75280;-78
2023/12/14 06:37:50;;;;;;;50.50;27.40;;;;;;;5.80;100.00;99501.16;107320;1245;61913;-79
2023/12/14 06:40:19;;;;;;;53.30;30.90;;;;;;;5.80;100.00;99516.68;107211;1248;57471;-79
2023/12/14 06:42:49;;;;;;;55.90;32.40;;;;;;;5.84;100.00;99523.69;107317;1248;62736;-78
2023/12/14 06:45:18;;;;;;;75.80;40.30;;;;;;;5.84;100.00;99528.13;107325;1248;61805;-80
2023/12/14 06:47:53;;;;;;;75.30;41.70;;;;;;;5.89;100.00;99532.98;104538;1277;600446;-79
2023/12/14 06:50:22;;;;;;;61.50;34.90;;;;;;;5.93;100.00;99528.77;106422;1268;61780;-80
2023/12/14 06:52:51;;;;;;;62.60;34.90;;;;;;;5.92;100.00;99532.11;106393;1257;57768;-79
2023/12/14 06:55:20;;;;;;;44.70;22.90;;;;;;;5.91;100.00;99543.42;106956;1251;60346;-79
2023/12/14 06:57:49;;;;;;;52.30;27.80;;;;;;;5.76;100.00;99543.77;107162;1251;72092;-79
2023/12/14 07:00:18;;;;;;;46.10;24.20;;;;;;;5.78;100.00;99547.91;107024;1254;70015;-80
2023/12/14 07:02:49;;;;;;;52.30;28.70;;;;;;;5.76;100.00;99561.58;107244;1248;63291;-79
2023/12/14 07:05:20;;;;;;;49.20;26.50;;;;;;;5.82;100.00;99547.30;107453;1247;61820;-79
2023/12/14 07:07:49;;;;;;;49.50;27.30;;;;;;;5.80;100.00;99541.21;107362;1255;57723;-81
2023/12/14 07:10:18;;;;;;;52.60;30.20;;;;;;;5.85;100.00;99539.30;107392;1254;61190;-80
2023/12/14 07:12:47;;;;;;;52.70;28.60;;;;;;;5.82;100.00;99537.40;107199;1248;70089;-80
2023/12/14 07:15:16;;;;;;;57.60;30.80;;;;;;;5.87;100.00;99529.83;107174;1248;70768;-80
2023/12/14 07:17:44;;;;;;;57.80;31.40;;;;;;;5.89;100.00;99528.86;107104;1251;73196;-80
2023/12/14 07:20:13;;;;;;;68.60;31.70;;;;;;;5.92;100.00;99526.60;107213;1259;62068;-80
2023/12/14 07:22:42;;;;;;;52.70;28.90;;;;;;;5.92;100.00;99550.08;107238;1256;61120;-79
2023/12/14 07:25:11;;;;;;;54.00;29.70;;;;;;;5.97;100.00;99578.41;107259;1252;62657;-80
2023/12/14 07:27:40;;;;;;;54.60;29.80;;;;;;;6.08;100.00;99587.33;107250;1249;61422;-80
2023/12/14 07:30:10;;;;;;;62.60;33.50;;;;;;;5.95;100.00;99579.94;107236;1248;70434;-80
2023/12/14 07:32:39;;;;;;;54.80;29.00;;;;;;;5.89;100.00;99579.27;107284;1248;62701;-79
2023/12/14 07:35:10;;;;;;;54.50;30.40;;;;;;;5.89;100.00;99588.13;107250;1248;59034;-80
2023/12/14 07:37:39;;;;;;;46.20;26.10;;;;;;;5.91;100.00;99595.76;107299;1247;61031;-79
2023/12/14 07:40:08;;;;;;;48.10;26.20;;;;;;;6.04;100.00;99586.38;107298;1246;72207;-79
2023/12/14 07:42:37;;;;;;;52.20;28.00;;;;;;;6.19;100.00;99586.19;107258;1258;72483;-79
2023/12/14 07:45:09;;;;;;;54.40;30.50;;;;;;;6.24;100.00;99595.15;107173;1247;70643;-79
2023/12/14 07:47:38;;;;;;;53.90;29.10;;;;;;;6.25;100.00;99589.90;107109;1249;63025;-79
2023/12/14 07:50:08;;;;;;;54.40;28.50;;;;;;;6.37;100.00;99599.38;107259;1248;62006;-78
2023/12/14 07:52:37;;;;;;;40.10;23.30;;;;;;;6.47;100.00;99596.73;107301;1248;57470;-79
2023/12/14 07:55:08;;;;;;;42.30;23.80;;;;;;;6.55;100.00;99578.19;107296;1247;72151;-80
2023/12/14 07:57:36;;;;;;;41.00;22.90;;;;;;;6.52;100.00;99582.56;107216;1248;72470;-80
2023/12/14 08:00:10;;;;;;;42.60;22.30;;;;;;;6.45;100.00;99601.08;107565;1251;61394;-80
2023/12/14 08:02:38;;;;;;;43.20;24.20;;;;;;;6.42;100.00;99609.58;107521;1244;73830;-78
2023/12/14 08:05:09;;;;;;;38.90;21.00;;;;;;;6.42;100.00;99631.88;107594;1256;62323;-79
2023/12/14 08:07:38;;;;;;;41.90;24.20;;;;;;;6.34;100.00;99628.10;107491;1247;58513;-80
2023/12/14 08:10:08;;;;;;;43.90;25.20;;;;;;;6.40;100.00;99639.96;107420;1246;62129;-80
2023/12/14 08:12:36;;;;;;;45.60;25.20;;;;;;;6.47;100.00;99645.36;107312;1256;72083;-80
2023/12/14 08:15:07;;;;;;;41.60;20.70;;;;;;;6.41;100.00;99646.31;107449;1244;70712;-79
2023/12/14 08:17:39;;;;;;;45.20;25.30;;;;;;;6.36;100.00;99643.88;107274;1244;74114;-80
2023/12/14 08:20:11;;;;;;;47.80;25.90;;;;;;;6.45;100.00;99651.21;107260;1245;59114;-79
2023/12/14 08:22:46;;;;;;;46.40;24.70;;;;;;;6.53;100.00;99647.48;107240;1245;59073;-80
2023/12/14 08:25:16;;;;;;;39.20;19.10;;;;;;;6.57;100.00;99656.91;107237;1244;72731;-79
2023/12/14 08:27:45;;;;;;;46.40;23.40;;;;;;;6.56;100.00;99666.88;107165;1246;72460;-78
2023/12/14 08:30:14;;;;;;;45.00;23.30;;;;;;;6.45;100.00;99678.02;107280;1244;70594;-78
2023/12/14 08:32:43;;;;;;;42.50;21.20;;;;;;;6.42;100.00;99671.33;107141;1246;72222;-78
2023/12/14 08:35:13;;;;;;;52.10;26.30;;;;;;;6.44;100.00;99677.91;106943;1244;58292;-79
2023/12/14 08:37:43;;;;;;;50.50;24.60;;;;;;;6.39;100.00;99680.34;107305;1244;60864;-79
2023/12/14 08:40:12;;;;;;;55.60;26.80;;;;;;;6.37;100.00;99686.52;107307;1244;73222;-79
2023/12/14 08:42:41;;;;;;;49.10;25.00;;;;;;;6.31;100.00;99696.50;107205;1244;62011;-78
2023/12/14 08:45:11;;;;;;;47.10;23.10;;;;;;;6.26;100.00;99705.84;107271;1245;70280;-78
2023/12/14 08:47:40;;;;;;;44.80;22.40;;;;;;;6.11;100.00;99698.22;107273;1247;63748;-79
2023/12/14 08:50:12;;;;;;;51.70;25.70;;;;;;;6.12;100.00;99680.00;107265;1245;61457;-81
2023/12/14 08:52:41;;;;;;;47.70;24.60;;;;;;;6.13;100.00;99688.63;107322;1244;59005;-78
2023/12/14 08:55:10;;;;;;;44.60;21.00;;;;;;;6.08;100.00;99683.91;107378;1251;61927;-78
2023/12/14 08:57:39;;;;;;;47.20;23.40;;;;;;;6.05;100.00;99674.63;107287;1248;62973;-78
2023/12/14 09:00:09;;;;;;;49.70;24.80;;;;;;;6.05;100.00;99676.35;107423;1244;69393;-78
2023/12/14 09:02:37;;;;;;;46.40;22.50;;;;;;;6.14;100.00;99683.36;107291;1246;74096;-80
2023/12/14 09:05:08;;;;;;;43.30;22.80;;;;;;;6.06;100.00;99680.98;107467;1245;58962;-79
2023/12/14 09:07:38;;;;;;;55.40;27.50;;;;;;;6.10;100.00;99689.11;107434;1245;58965;-79
2023/12/14 09:10:08;;;;;;;56.60;26.60;;;;;;;6.19;100.00;99703.36;107460;1245;61910;-79
2023/12/14 09:12:37;;;;;;;47.30;23.00;;;;;;;6.23;100.00;99726.31;107521;1244;71273;-79
2023/12/14 09:15:07;;;;;;;51.30;26.80;;;;;;;6.19;100.00;99727.24;107330;1243;69623;-81
2023/12/14 09:17:36;;;;;;;52.40;25.20;;;;;;;6.23;100.00;99731.45;107388;1244;73477;-78
2023/12/14 09:20:08;;;;;;;39.30;20.30;;;;;;;6.17;100.00;99728.41;107405;1245;58979;-77
2023/12/14 09:22:36;;;;;;;42.00;20.40;;;;;;;5.92;100.00;99745.68;107396;1244;62177;-78
2023/12/14 09:25:09;;;;;;;40.20;19.80;;;;;;;5.93;100.00;99762.38;107446;1244;73069;-79
2023/12/14 09:27:38;;;;;;;40.50;21.00;;;;;;;5.86;100.00;99771.48;107505;1244;72658;-80
2023/12/14 09:30:08;;;;;;;39.70;19.60;;;;;;;5.75;100.00;99765.16;107430;1244;59708;-79
2023/12/14 09:32:37;;;;;;;40.40;19.60;;;;;;;5.63;100.00;99771.51;107468;1244;63543;-82
2023/12/14 09:35:06;;;;;;;43.10;21.60;;;;;;;5.61;100.00;99768.84;107498;1244;58168;-78
2023/12/14 09:37:35;;;;;;;45.80;26.00;;;;;;;5.64;100.00;99771.23;107329;1246;57642;-80
2023/12/14 09:40:08;;;;;;;39.50;19.50;;;;;;;5.67;100.00;99783.13;107449;1255;71242;-78
2023/12/14 09:42:39;;;;;;;34.90;18.70;;;;;;;5.73;100.00;99782.91;107374;1250;72557;-80
2023/12/14 09:45:12;;;;;;;40.10;19.80;;;;;;;5.69;100.00;99783.83;107410;1242;70216;-78
2023/12/14 09:47:41;;;;;;;37.80;18.70;;;;;;;5.72;100.00;99784.16;107338;1245;74170;-80
2023/12/14 09:50:10;;;;;;;40.80;19.90;;;;;;;5.78;100.00;99778.44;107516;1244;59063;-78
2023/12/14 09:52:40;;;;;;;38.80;20.00;;;;;;;5.76;100.00;99774.21;107502;1248;57570;-78
2023/12/14 09:55:09;;;;;;;43.20;21.40;;;;;;;5.78;100.00;99769.23;107596;1244;72583;-80
2023/12/14 09:57:38;;;;;;;39.30;21.30;;;;;;;5.79;100.00;99753.95;107729;1244;69722;-79
2023/12/14 10:00:10;;;;;;;41.70;20.10;;;;;;;5.78;100.00;99753.69;107771;1245;70914;-78
2023/12/14 10:02:41;;;;;;;42.10;21.50;;;;;;;5.86;100.00;99768.20;108253;1244;63836;-79
2023/12/14 10:05:11;;;;;;;35.60;19.50;;;;;;;5.98;100.00;99769.65;108220;1245;58039;-79
2023/12/14 10:07:44;;;;;;;39.00;20.00;;;;;;;6.03;100.00;99766.38;107972;1244;58960;-79
2023/12/14 21:13:11;;;;;;;17.70;10.10;;;;;;;3.98;100.00;100796.59;104691;1281;599713;-81
2023/12/14 21:15:43;;;;;;;17.00;9.70;;;;;;;3.90;100.00;100802.83;107448;1251;57552;-81
2023/12/14 21:18:12;;;;;;;15.50;8.50;;;;;;;3.99;100.00;100803.48;107145;1251;59981;-78
2023/12/14 21:20:44;;;;;;;13.70;7.60;;;;;;;3.96;100.00;100813.08;107125;1248;71569;-81
2023/12/14 21:23:15;;;;;;;16.90;9.10;;;;;;;3.83;100.00;100826.38;106781;1252;72348;-79
2023/12/14 21:26:01;;;;;;;18.30;10.90;;;;;;;3.90;100.00;100826.60;106804;1252;209037;-80
2023/12/14 21:28:31;;;;;;;18.50;9.80;;;;;;;3.85;100.00;100827.86;107084;1257;62436;-79
2023/12/14 21:31:00;;;;;;;19.00;11.10;;;;;;;3.70;100.00;100828.64;107076;1255;59123;-81
2023/12/14 21:33:31;;;;;;;15.70;10.00;;;;;;;3.73;100.00;100826.61;107089;1248;60685;-80
2023/12/14 21:36:01;;;;;;;17.40;9.40;;;;;;;3.69;100.00;100832.13;107053;1248;61143;-79
2023/12/14 21:38:32;;;;;;;16.90;9.50;;;;;;;3.68;100.00;100826.51;107072;1249;61669;-80
2023/12/14 21:41:01;;;;;;;16.40;9.70;;;;;;;3.72;100.00;100831.85;107310;1248;59817;-80
2023/12/14 21:43:30;;;;;;;12.80;7.70;;;;;;;3.79;100.00;100838.61;107197;1244;73839;-78
2023/12/14 21:45:58;;;;;;;14.20;8.80;;;;;;;3.67;100.00;100840.66;107744;1248;62800;-78
2023/12/14 21:48:30;;;;;;;16.30;9.60;;;;;;;3.75;100.00;100842.57;107229;1248;59019;-79
2023/12/14 21:50:59;;;;;;;14.40;9.40;;;;;;;3.81;100.00;100858.66;107418;1247;61966;-81
2023/12/14 21:53:33;;;;;;;16.00;9.80;;;;;;;3.76;100.00;100873.55;107112;1252;71839;-78
2023/12/14 21:56:07;;;;;;;12.90;8.40;;;;;;;3.78;100.00;100882.05;107123;1252;59562;-81
2023/12/14 21:58:39;;;;;;;13.00;8.90;;;;;;;3.85;100.00;100886.44;107312;1251;62424;-78
2023/12/14 22:01:09;;;;;;;17.80;9.50;;;;;;;3.87;100.00;100887.38;107166;1248;57974;-81
2023/12/14 22:03:44;;;;;;;15.30;9.10;;;;;;;4.00;100.00;100896.50;107078;1247;57471;-80
2023/12/14 22:06:15;;;;;;;14.70;9.10;;;;;;;3.92;100.00;100909.20;107062;1251;73153;-81
2023/12/14 22:08:44;;;;;;;13.70;8.80;;;;;;;3.92;100.00;100915.58;106900;1244;62101;-84
2023/12/14 22:11:17;;;;;;;13.30;8.40;;;;;;;3.88;100.00;100918.00;107043;1248;70724;-79
2023/12/14 22:14:07;;;;;;;13.50;8.70;;;;;;;3.93;100.00;100922.62;104212;1276;602496;-80
2023/12/14 22:16:36;;;;;;;13.40;8.70;;;;;;;3.92;100.00;100925.25;106624;1249;61316;-80
2023/12/14 22:19:05;;;;;;;13.70;8.60;;;;;;;3.87;100.00;100920.13;106917;1250;61622;-81
2023/12/14 22:21:34;;;;;;;11.70;8.00;;;;;;;3.93;100.00;100918.49;106931;1248;72017;-81
2023/12/14 22:24:03;;;;;;;13.90;7.20;;;;;;;3.95;100.00;100917.52;106873;1248;72518;-82